Time;durP1;ratioP1;P1;durP2;ratioP2;P2;SDS_P1;SDS_P2;PMS_P1;PMS_P2;Temp;Humidity;BMP_temperature;BMP_pressure;BME280_temperature;BME280_humidity;BME280_pressure;Samples;Min_cycle;Max_cycle;Signal;HPM_P1;HPM_P2
2023/12/27 00:01:07;;;;;;;4.65;2.83;;;;;;;8.46;74.94;99204.69;4928427;27;103899;-69
2023/12/27 00:03:38;;;;;;;4.88;3.17;;;;;;;8.31;75.35;99208.69;4945631;27;103220;-70
2023/12/27 00:06:08;;;;;;;4.55;2.95;;;;;;;8.24;75.39;99212.84;4924806;28;104123;-69
2023/12/27 00:08:36;;;;;;;5.85;3.30;;;;;;;8.17;76.27;99219.69;4925999;28;102614;-69
2023/12/27 00:11:04;;;;;;;7.72;3.50;;;;;;;8.27;75.90;99223.16;4943768;28;103866;-70
2023/12/27 00:13:34;;;;;;;7.00;3.92;;;;;;;8.19;76.06;99220.34;4943216;27;104073;-70
2023/12/27 00:16:02;;;;;;;7.80;4.72;;;;;;;8.05;77.00;99227.72;4944506;27;103287;-69
2023/12/27 00:18:30;;;;;;;5.72;3.35;;;;;;;7.99;78.05;99220.41;4949982;27;102829;-69
2023/12/27 00:20:59;;;;;;;4.90;3.40;;;;;;;7.80;78.90;99211.47;4943691;28;104700;-70
2023/12/27 00:23:30;;;;;;;6.88;3.30;;;;;;;7.87;78.71;99201.22;4946420;28;103231;-69
2023/12/27 00:25:58;;;;;;;6.35;3.60;;;;;;;7.82;78.27;99197.31;4926963;28;103212;-69
2023/12/27 00:28:26;;;;;;;5.82;2.97;;;;;;;7.84;79.24;99195.41;4930321;28;102616;-69
2023/12/27 00:30:55;;;;;;;4.70;3.40;;;;;;;7.91;77.97;99202.63;4943082;28;102734;-69
2023/12/27 00:33:23;;;;;;;6.88;3.50;;;;;;;7.85;78.70;99195.25;4926238;28;103321;-70
2023/12/27 00:35:54;;;;;;;4.60;2.83;;;;;;;7.84;78.26;99213.84;4942214;27;103440;-70
2023/12/27 00:38:22;;;;;;;5.53;2.58;;;;;;;8.00;78.09;99219.41;4944659;27;102722;-69
2023/12/27 00:40:52;;;;;;;4.47;2.58;;;;;;;8.10;77.84;99222.88;4945473;27;104020;-70
2023/12/27 00:43:20;;;;;;;6.32;3.60;;;;;;;8.17;76.98;99214.41;4924287;28;103460;-70
2023/12/27 00:45:48;;;;;;;6.32;3.88;;;;;;;7.95;77.66;99208.44;4942929;27;104263;-69
2023/12/27 00:48:16;;;;;;;7.90;3.80;;;;;;;7.83;78.48;99210.38;4922497;28;102684;-70
2023/12/27 00:50:44;;;;;;;8.40;3.95;;;;;;;7.79;78.91;99191.38;4927843;28;102687;-69
2023/12/27 00:53:12;;;;;;;5.80;3.45;;;;;;;7.83;78.84;99180.53;4943238;28;103290;-70
2023/12/27 00:55:41;;;;;;;5.93;3.30;;;;;;;7.79;79.20;99190.53;4925231;28;104352;-70
2023/12/27 00:58:10;;;;;;;5.53;2.65;;;;;;;7.85;78.51;99207.59;4923646;28;102725;-70
2023/12/27 01:00:38;;;;;;;5.72;3.20;;;;;;;7.99;77.98;99201.94;4924508;27;102757;-69
2023/12/27 01:03:08;;;;;;;5.85;3.72;;;;;;;7.88;77.76;99205.50;4943475;28;104104;-70
2023/12/27 01:05:36;;;;;;;7.20;3.58;;;;;;;7.69;78.54;99200.22;4947784;27;103144;-70
2023/12/27 01:08:04;;;;;;;7.05;3.30;;;;;;;7.70;78.80;99205.34;4928623;28;102551;-70
2023/12/27 01:10:33;;;;;;;7.32;3.60;;;;;;;7.76;78.29;99189.00;4927210;28;102789;-70
2023/12/27 01:13:03;;;;;;;5.28;3.20;;;;;;;7.86;77.77;99206.63;4923323;28;104285;-70
2023/12/27 01:15:34;;;;;;;5.32;2.80;;;;;;;7.99;77.88;99201.94;4924657;27;104125;-70
2023/12/27 01:18:03;;;;;;;4.85;2.70;;;;;;;8.04;77.04;99199.69;4946408;28;102559;-70
2023/12/27 01:20:32;;;;;;;3.95;2.45;;;;;;;8.13;76.69;99203.28;4922548;28;103272;-69
2023/12/27 01:23:00;;;;;;;4.82;2.67;;;;;;;8.09;76.95;99196.63;4942724;27;104245;-70
2023/12/27 01:25:30;;;;;;;3.85;2.40;;;;;;;8.13;77.11;99196.22;4927765;28;103263;-70
2023/12/27 01:27:58;;;;;;;4.20;2.13;;;;;;;8.19;76.90;99199.25;4942756;28;102632;-70
2023/12/27 01:30:27;;;;;;;3.72;2.15;;;;;;;8.24;76.16;99195.25;4938778;27;102694;-69
2023/12/27 01:32:56;;;;;;;5.03;2.20;;;;;;;8.29;76.15;99194.81;4945779;28;104013;-69
2023/12/27 01:35:25;;;;;;;3.60;2.50;;;;;;;8.32;75.88;99191.03;4942761;28;103257;-69
2023/12/27 01:37:53;;;;;;;3.83;2.65;;;;;;;8.34;76.31;99179.38;4930695;28;103410;-69
2023/12/27 01:40:22;;;;;;;5.78;2.80;;;;;;;8.34;76.21;99183.84;4946090;27;103854;-69
2023/12/27 01:42:50;;;;;;;4.75;3.30;;;;;;;8.28;75.91;99191.34;4941426;28;104326;-70
2023/12/27 01:45:18;;;;;;;5.47;3.20;;;;;;;8.02;77.26;99188.44;4921817;28;103416;-69
2023/12/27 01:47:47;;;;;;;6.22;3.97;;;;;;;7.97;76.98;99193.31;4940121;27;102578;-70
2023/12/27 01:50:17;;;;;;;9.02;5.65;;;;;;;8.02;76.51;99199.00;4931020;28;102904;-70
2023/12/27 01:52:46;;;;;;;6.53;3.90;;;;;;;8.06;76.54;99196.94;4946391;27;103253;-70
2023/12/27 01:55:16;;;;;;;5.70;3.28;;;;;;;8.10;76.65;99199.13;4927674;28;104237;-69
2023/12/27 01:57:45;;;;;;;6.15;3.10;;;;;;;8.13;76.16;99196.22;4948361;27;102622;-70
2023/12/27 02:00:14;;;;;;;5.35;2.75;;;;;;;8.14;76.16;99189.97;4927582;27;104542;-69
2023/12/27 02:02:42;;;;;;;5.88;3.40;;;;;;;8.09;76.39;99197.47;4941673;27;103098;-69
2023/12/27 02:05:10;;;;;;;7.97;4.07;;;;;;;7.89;77.35;99195.81;5011746;27;103825;-69
2023/12/27 02:07:41;;;;;;;6.55;3.85;;;;;;;7.88;77.83;99199.41;4947058;27;102628;-70
2023/12/27 02:10:11;;;;;;;4.60;3.28;;;;;;;7.98;77.75;99205.53;4925998;28;103003;-69
2023/12/27 02:12:39;;;;;;;5.90;3.47;;;;;;;7.94;77.00;99202.34;4925408;28;104240;-70
2023/12/27 02:15:07;;;;;;;9.00;4.03;;;;;;;7.72;77.74;99206.06;4927754;27;103186;-69
2023/12/27 02:17:35;;;;;;;7.00;3.95;;;;;;;7.64;78.48;99198.03;4947753;28;102898;-69
2023/12/27 02:20:08;;;;;;;6.43;3.83;;;;;;;7.56;78.61;99187.31;4925387;28;104190;-69
2023/12/27 02:22:43;;;;;;;7.78;3.28;;;;;;;7.49;78.83;99183.56;4927801;28;104181;-70
2023/12/27 02:25:13;;;;;;;5.60;3.60;;;;;;;7.42;79.05;99181.47;4928269;28;103206;-70
2023/12/27 02:27:41;;;;;;;5.57;3.70;;;;;;;7.49;78.31;99188.84;4949408;27;102640;-69
2023/12/27 02:30:17;;;;;;;4.80;2.92;;;;;;;7.58;78.94;99188.00;4930322;28;104073;-69
2023/12/27 02:32:45;;;;;;;6.10;3.53;;;;;;;7.66;78.56;99189.97;4924072;28;104202;-69
2023/12/27 02:35:13;;;;;;;6.50;3.80;;;;;;;7.62;77.89;99184.13;4926610;28;103397;-70
2023/12/27 02:37:42;;;;;;;6.65;3.80;;;;;;;7.60;77.95;99184.28;4947994;27;102752;-70
2023/12/27 02:40:12;;;;;;;5.97;2.97;;;;;;;7.60;78.53;99191.34;4925484;28;102710;-69
2023/12/27 02:42:40;;;;;;;7.68;4.00;;;;;;;7.59;78.11;99187.88;4937914;27;103383;-70
2023/12/27 02:45:09;;;;;;;8.82;4.60;;;;;;;7.43;78.32;99183.13;4928770;28;103364;-70
2023/12/27 02:47:40;;;;;;;9.43;3.80;;;;;;;7.45;78.81;99181.22;4931581;28;103368;-69
2023/12/27 02:50:08;;;;;;;6.93;3.60;;;;;;;7.50;79.28;99179.97;4926423;28;104090;-70
2023/12/27 02:52:37;;;;;;;11.07;4.07;;;;;;;7.52;78.25;99180.63;4940560;27;103218;-70
2023/12/27 02:55:05;;;;;;;4.07;2.90;;;;;;;7.55;78.56;99177.75;4927060;28;103038;-70
2023/12/27 02:57:35;;;;;;;6.45;4.35;;;;;;;7.64;77.60;99172.47;4945278;27;103154;-70
2023/12/27 03:00:04;;;;;;;5.43;3.30;;;;;;;7.55;78.50;99169.84;4945279;27;103917;-70
2023/12/27 03:02:32;;;;;;;5.53;3.30;;;;;;;7.49;78.99;99175.66;4924683;27;104140;-70
2023/12/27 03:05:00;;;;;;;5.95;3.90;;;;;;;7.33;79.34;99168.28;4927232;28;103949;-70
2023/12/27 03:07:28;;;;;;;6.05;3.90;;;;;;;7.36;79.90;99158.28;4939898;28;102675;-70
2023/12/27 03:09:57;;;;;;;6.28;4.22;;;;;;;7.26;79.96;99158.28;4954509;27;102842;-70
2023/12/27 03:12:25;;;;;;;14.05;5.05;;;;;;;7.13;80.72;99152.44;4950580;27;102965;-70
2023/12/27 03:14:54;;;;;;;9.32;4.45;;;;;;;7.11;80.54;99152.56;4941639;27;104291;-70
2023/12/27 03:17:23;;;;;;;5.85;4.00;;;;;;;7.17;80.59;99148.56;4925492;28;103101;-69
2023/12/27 03:19:51;;;;;;;8.20;4.75;;;;;;;7.23;80.62;99157.69;4951065;28;104172;-70
2023/12/27 03:22:19;;;;;;;13.30;5.75;;;;;;;7.12;80.52;99146.31;4931291;28;104312;-70
2023/12/27 03:24:47;;;;;;;8.13;5.43;;;;;;;7.06;81.11;99146.00;4950059;27;104229;-70
2023/12/27 03:27:15;;;;;;;8.75;4.70;;;;;;;6.99;81.38;99139.63;4939121;27;102985;-69
2023/12/27 03:29:44;;;;;;;6.55;4.68;;;;;;;6.95;82.27;99145.16;4952544;27;102778;-69
2023/12/27 03:32:13;;;;;;;7.30;4.45;;;;;;;7.03;81.94;99146.31;4928665;28;104666;-69
2023/12/27 03:34:41;;;;;;;7.70;4.93;;;;;;;7.07;81.56;99153.78;4932752;28;104104;-69
2023/12/27 03:37:09;;;;;;;13.52;5.30;;;;;;;6.99;81.27;99145.72;4924562;28;102654;-69
2023/12/27 03:39:37;;;;;;;8.45;4.90;;;;;;;6.96;81.53;99151.28;4925080;27;103388;-69
2023/12/27 03:42:06;;;;;;;4.82;3.20;;;;;;;7.10;81.67;99148.25;4929086;28;104494;-70
2023/12/27 03:44:34;;;;;;;5.78;3.35;;;;;;;7.23;81.09;99141.91;4923846;27;103175;-70
2023/12/27 03:47:02;;;;;;;7.95;4.20;;;;;;;7.34;81.21;99149.69;4929752;28;102641;-69
2023/12/27 03:49:31;;;;;;;6.15;3.92;;;;;;;7.30;80.40;99149.13;4923695;28;102816;-69
2023/12/27 03:52:00;;;;;;;5.00;3.70;;;;;;;7.32;80.09;99141.06;4930602;28;103209;-69
2023/12/27 03:54:28;;;;;;;8.00;4.15;;;;;;;7.33;80.39;99140.13;4946106;27;103140;-70
2023/12/27 03:56:56;;;;;;;6.20;3.90;;;;;;;7.38;80.10;99145.81;4933375;28;103199;-70
2023/12/27 03:59:24;;;;;;;5.65;3.53;;;;;;;7.43;79.69;99143.59;4945289;27;104064;-70
2023/12/27 04:01:52;;;;;;;4.28;2.92;;;;;;;7.47;79.17;99139.72;4925022;28;103111;-69
2023/12/27 04:04:20;;;;;;;9.07;4.75;;;;;;;7.50;78.40;99137.78;4945061;28;103219;-69
2023/12/27 04:06:49;;;;;;;7.13;4.22;;;;;;;7.47;79.25;99150.25;4943076;28;103939;-69
2023/12/27 04:09:17;;;;;;;7.93;4.55;;;;;;;7.43;79.42;99138.34;4942948;27;104302;-69
2023/12/27 04:11:46;;;;;;;8.05;5.30;;;;;;;7.08;80.72;99138.81;4926131;27;104085;-69
2023/12/27 04:14:15;;;;;;;8.30;5.13;;;;;;;7.20;80.68;99142.19;4933479;28;104160;-69
2023/12/27 04:16:44;;;;;;;6.45;3.97;;;;;;;7.29;80.25;99136.09;4922531;28;103077;-69
2023/12/27 04:19:12;;;;;;;6.97;4.75;;;;;;;7.25;80.70;99135.53;4942328;27;104226;-69
2023/12/27 04:21:41;;;;;;;7.10;4.20;;;;;;;7.21;80.33;99138.59;4925037;28;103955;-69
2023/12/27 04:24:12;;;;;;;7.70;4.85;;;;;;;6.98;81.16;99133.53;4943441;27;103181;-69
2023/12/27 04:26:41;;;;;;;12.40;5.22;;;;;;;6.87;81.20;99123.94;4942421;28;103379;-68
2023/12/27 04:29:10;;;;;;;9.02;5.18;;;;;;;6.87;82.02;99120.47;4923935;27;103107;-69
2023/12/27 04:31:38;;;;;;;9.38;6.30;;;;;;;6.86;82.00;99111.72;5011702;27;103268;-70
2023/12/27 04:34:09;;;;;;;7.43;4.60;;;;;;;6.94;81.34;99116.31;4942897;28;105188;-69
2023/12/27 04:36:37;;;;;;;8.32;5.68;;;;;;;6.89;81.93;99110.63;4926783;28;102761;-70
2023/12/27 04:39:06;;;;;;;8.02;5.72;;;;;;;6.84;81.77;99104.94;4948677;27;104130;-69
2023/12/27 04:41:36;;;;;;;8.25;4.68;;;;;;;6.76;82.62;99103.81;4941114;27;103207;-69
2023/12/27 04:44:04;;;;;;;6.47;4.72;;;;;;;6.78;82.09;99096.59;4929431;28;103190;-69
2023/12/27 04:46:36;;;;;;;7.28;5.32;;;;;;;6.80;82.40;99099.94;4926855;28;102843;-70
2023/12/27 04:49:04;;;;;;;7.38;4.53;;;;;;;6.85;81.66;99111.88;4946087;28;104025;-69
2023/12/27 04:51:36;;;;;;;7.25;4.72;;;;;;;6.70;82.28;99109.59;4926349;28;103209;-70
2023/12/27 04:54:04;;;;;;;6.20;4.45;;;;;;;6.80;81.40;99105.22;4922306;28;103278;-69
2023/12/27 04:56:33;;;;;;;5.97;3.72;;;;;;;6.68;82.10;99113.34;4925530;28;102659;-69
2023/12/27 04:59:05;;;;;;;5.53;3.70;;;;;;;6.81;82.43;99113.94;4927048;28;102685;-69
2023/12/27 05:01:33;;;;;;;7.28;3.83;;;;;;;6.75;81.46;99120.56;5013636;27;102961;-69
2023/12/27 05:04:01;;;;;;;8.20;3.97;;;;;;;6.63;82.26;99113.75;4926443;28;104097;-70
2023/12/27 05:06:30;;;;;;;4.90;2.88;;;;;;;6.77;82.51;99120.44;4928706;28;103225;-69
2023/12/27 05:08:59;;;;;;;5.55;3.25;;;;;;;6.78;82.18;99115.03;4944384;28;102629;-70
2023/12/27 05:11:28;;;;;;;4.07;2.88;;;;;;;6.78;82.15;99106.31;4944601;28;104201;-70
2023/12/27 05:13:56;;;;;;;6.18;3.33;;;;;;;6.81;81.76;99108.66;4926215;28;104270;-70
2023/12/27 05:16:25;;;;;;;4.15;2.63;;;;;;;6.90;81.37;99109.66;4924430;28;102599;-70
2023/12/27 05:18:55;;;;;;;6.85;3.35;;;;;;;6.89;80.73;99108.00;4946288;27;104068;-70
2023/12/27 05:21:23;;;;;;;4.72;2.70;;;;;;;7.01;80.91;99101.66;4937322;27;103251;-70
2023/12/27 05:23:51;;;;;;;8.32;3.67;;;;;;;6.85;80.42;99102.19;4943024;27;103330;-69
2023/12/27 05:26:19;;;;;;;6.97;3.00;;;;;;;6.89;81.08;99108.00;4925282;28;102736;-69
2023/12/27 05:28:47;;;;;;;6.03;2.83;;;;;;;6.99;80.74;99103.59;4940815;28;104122;-69
2023/12/27 05:31:16;;;;;;;7.80;3.10;;;;;;;7.05;80.42;99097.78;4927779;28;104608;-70
2023/12/27 05:33:48;;;;;;;8.13;3.55;;;;;;;6.88;80.57;99101.09;4943331;28;103188;-70
2023/12/27 05:36:16;;;;;;;5.78;3.53;;;;;;;6.87;80.85;99102.03;4942996;28;102772;-69
2023/12/27 05:38:44;;;;;;;4.32;3.03;;;;;;;6.92;80.85;99113.84;4948778;27;102633;-69
2023/12/27 05:41:12;;;;;;;4.28;2.83;;;;;;;6.96;80.29;99106.50;4933465;27;103237;-70
2023/12/27 05:43:40;;;;;;;4.05;2.60;;;;;;;6.99;79.75;99106.22;4941525;27;104182;-69
2023/12/27 05:46:08;;;;;;;4.50;2.75;;;;;;;7.03;80.04;99110.25;5011155;27;102598;-70
2023/12/27 05:48:36;;;;;;;4.07;2.47;;;;;;;7.09;79.47;99114.97;4941812;27;102727;-69
2023/12/27 05:51:05;;;;;;;5.57;3.40;;;;;;;7.16;78.89;99103.91;4948889;27;103254;-69
2023/12/27 05:53:33;;;;;;;5.20;3.00;;;;;;;7.00;79.55;99101.81;4943344;28;103207;-69
2023/12/27 05:56:02;;;;;;;6.63;4.00;;;;;;;6.88;79.40;99101.09;4941510;28;102663;-69
2023/12/27 05:58:31;;;;;;;5.65;3.20;;;;;;;6.78;79.94;99093.97;4948867;28;103879;-70
2023/12/27 06:00:59;;;;;;;7.63;3.70;;;;;;;6.77;80.11;99089.69;4935827;27;104429;-70
2023/12/27 06:03:27;;;;;;;5.93;3.65;;;;;;;6.75;80.24;99083.72;4949584;28;103302;-69
2023/12/27 06:05:55;;;;;;;6.45;4.13;;;;;;;6.65;80.26;99077.59;4940533;27;102786;-70
2023/12/27 06:08:25;;;;;;;7.85;4.53;;;;;;;6.65;80.50;99082.84;4927894;28;104247;-70
2023/12/27 06:10:53;;;;;;;7.55;4.40;;;;;;;6.67;81.00;99088.81;4946131;28;103280;-69
2023/12/27 06:13:21;;;;;;;5.57;3.85;;;;;;;6.66;80.71;99087.16;4929558;28;104168;-69
2023/12/27 06:15:48;;;;;;;5.95;3.42;;;;;;;6.56;81.48;99091.53;4947462;28;102718;-69
2023/12/27 06:18:17;;;;;;;5.03;3.30;;;;;;;6.56;80.61;99094.16;4938226;28;102765;-70
2023/12/27 06:20:45;;;;;;;5.03;3.20;;;;;;;6.63;80.97;99090.88;4943288;28;104037;-70
2023/12/27 06:23:13;;;;;;;6.05;3.50;;;;;;;6.64;80.57;99073.28;4943306;28;103207;-70
2023/12/27 06:25:42;;;;;;;5.65;3.45;;;;;;;6.70;80.05;99074.56;4927807;28;103085;-70
2023/12/27 06:28:10;;;;;;;4.60;3.55;;;;;;;6.66;79.93;99060.81;4942785;27;102659;-70
2023/12/27 06:30:38;;;;;;;4.03;2.75;;;;;;;6.54;80.03;99051.38;4943717;27;103191;-69
2023/12/27 06:33:07;;;;;;;6.03;3.58;;;;;;;6.53;79.90;99052.34;4949890;27;103258;-70
2023/12/27 06:35:35;;;;;;;7.00;3.58;;;;;;;6.55;80.08;99053.88;4948922;27;103932;-69
2023/12/27 06:38:03;;;;;;;6.57;4.00;;;;;;;6.49;79.96;99051.78;4948671;28;102661;-70
2023/12/27 06:40:31;;;;;;;8.35;4.03;;;;;;;6.49;80.34;99053.59;4948044;27;103241;-70
2023/12/27 06:43:00;;;;;;;7.57;3.40;;;;;;;6.44;80.23;99067.94;4924397;27;103205;-69
2023/12/27 06:45:28;;;;;;;4.78;3.10;;;;;;;6.47;79.88;99072.09;4942376;27;103187;-70
2023/12/27 06:47:57;;;;;;;7.00;3.55;;;;;;;6.45;79.19;99074.88;4949156;28;102768;-68
2023/12/27 06:50:26;;;;;;;4.43;3.20;;;;;;;6.45;79.96;99074.88;4929773;28;104193;-69
2023/12/27 06:52:55;;;;;;;4.35;2.88;;;;;;;6.51;79.46;99067.41;4947760;27;103996;-69
2023/12/27 06:55:24;;;;;;;6.07;3.60;;;;;;;6.54;78.94;99065.34;4929704;28;102749;-68
2023/12/27 06:57:52;;;;;;;5.88;3.28;;;;;;;6.56;78.79;99060.78;4948346;27;104833;-69
2023/12/27 07:00:21;;;;;;;7.28;3.45;;;;;;;6.57;78.63;99061.63;4945282;27;103283;-69
2023/12/27 07:02:50;;;;;;;5.00;3.08;;;;;;;6.53;78.79;99061.06;4930192;28;104200;-69
2023/12/27 07:05:18;;;;;;;5.70;3.53;;;;;;;6.55;79.06;99064.41;4941233;27;102806;-69
2023/12/27 07:07:46;;;;;;;4.68;2.78;;;;;;;6.49;78.33;99059.66;4948380;27;103834;-69
2023/12/27 07:10:14;;;;;;;5.30;3.10;;;;;;;6.51;78.84;99068.28;4934048;28;104194;-66
2023/12/27 07:12:42;;;;;;;7.78;3.55;;;;;;;6.50;78.86;99071.00;4929180;28;104216;-69
2023/12/27 07:15:11;;;;;;;6.85;4.20;;;;;;;6.55;78.69;99071.44;4942399;28;102660;-69
2023/12/27 07:17:41;;;;;;;7.88;4.78;;;;;;;6.45;78.27;99069.63;4942918;28;104198;-68
2023/12/27 07:20:10;;;;;;;11.02;4.97;;;;;;;6.27;79.14;99076.47;4927067;28;104576;-68
2023/12/27 07:22:38;;;;;;;7.50;4.28;;;;;;;6.11;79.81;99077.75;4954522;27;103311;-68
2023/12/27 07:25:06;;;;;;;6.43;3.90;;;;;;;6.21;79.65;99066.47;4951027;27;102574;-68
2023/12/27 07:27:34;;;;;;;6.70;4.00;;;;;;;6.34;79.51;99067.09;4942471;28;104172;-69
2023/12/27 07:30:04;;;;;;;8.20;4.57;;;;;;;6.38;79.24;99062.38;4928945;28;103268;-68
2023/12/27 07:32:32;;;;;;;8.80;4.25;;;;;;;6.31;79.34;99062.06;4927244;28;104350;-68
2023/12/27 07:35:04;;;;;;;6.80;3.50;;;;;;;6.35;79.41;99068.72;4951938;27;102683;-69
2023/12/27 07:37:33;;;;;;;5.18;3.22;;;;;;;6.37;79.27;99066.81;4946326;27;103964;-69
2023/12/27 07:40:01;;;;;;;4.28;2.80;;;;;;;6.41;78.80;99070.84;4943815;27;103954;-68
2023/12/27 07:42:29;;;;;;;6.40;3.88;;;;;;;6.45;78.90;99066.97;4929741;28;105027;-68
2023/12/27 07:44:57;;;;;;;6.38;3.95;;;;;;;6.45;78.99;99069.63;4945017;28;103708;-69
2023/12/27 07:47:25;;;;;;;4.53;2.95;;;;;;;6.51;78.61;99067.41;4943155;28;102736;-69
2023/12/27 07:49:53;;;;;;;5.72;3.50;;;;;;;6.56;78.75;99070.47;4943940;27;103970;-68
2023/12/27 07:52:23;;;;;;;8.15;3.70;;;;;;;6.58;78.09;99073.84;4947899;27;103894;-69
2023/12/27 07:54:50;;;;;;;5.85;3.53;;;;;;;6.58;78.10;99089.63;4942163;27;104759;-69
2023/12/27 07:57:20;;;;;;;10.63;5.35;;;;;;;6.51;78.46;99091.09;4942417;27;102788;-69
2023/12/27 07:59:55;;;;;;;6.30;3.83;;;;;;;6.54;78.86;99109.28;4922748;27;104185;-67
2023/12/27 08:02:23;;;;;;;10.05;5.45;;;;;;;6.40;78.09;99100.75;4946921;28;103854;-68
2023/12/27 08:04:51;;;;;;;5.80;3.80;;;;;;;6.44;78.81;99094.25;4945612;27;102710;-64
2023/12/27 08:07:19;;;;;;;11.68;5.30;;;;;;;6.49;79.07;99096.50;4929440;27;104229;-70
2023/12/27 08:09:49;;;;;;;8.13;3.88;;;;;;;6.60;79.06;99078.00;4946356;27;104492;-71
2023/12/27 08:12:19;;;;;;;8.43;3.70;;;;;;;6.70;78.79;99077.19;4931074;28;103222;-69
2023/12/27 08:14:49;;;;;;;7.20;4.20;;;;;;;6.77;78.57;99084.41;4937705;28;102648;-67
2023/12/27 08:17:17;;;;;;;9.10;5.57;;;;;;;6.68;77.66;99085.22;4947024;28;103585;-69
2023/12/27 08:19:44;;;;;;;6.05;4.15;;;;;;;6.66;79.10;99094.22;4930170;28;105187;-68
2023/12/27 08:22:13;;;;;;;8.05;4.88;;;;;;;6.68;78.83;99090.50;4946045;27;103100;-68
2023/12/27 08:24:41;;;;;;;6.78;4.00;;;;;;;6.71;78.60;99089.41;4946191;28;102822;-70
2023/12/27 08:27:10;;;;;;;6.68;3.85;;;;;;;6.84;78.04;99089.13;4928779;28;104142;-71
2023/12/27 08:29:38;;;;;;;5.88;3.65;;;;;;;6.97;77.88;99095.00;4931608;28;104166;-73
2023/12/27 08:32:09;;;;;;;6.53;3.67;;;;;;;7.17;77.51;99092.41;4929228;28;104212;-72
2023/12/27 08:34:39;;;;;;;6.28;4.15;;;;;;;7.17;77.38;99084.50;4943008;27;102579;-71
2023/12/27 08:37:07;;;;;;;9.30;4.15;;;;;;;7.33;77.47;99079.50;4945080;27;102725;-71
2023/12/27 08:39:35;;;;;;;7.15;4.75;;;;;;;7.33;76.97;99079.50;4944225;27;103272;-72
2023/12/27 08:42:04;;;;;;;8.10;4.57;;;;;;;7.31;76.94;99081.47;4942376;27;103281;-72
2023/12/27 08:44:34;;;;;;;7.85;4.68;;;;;;;7.32;77.26;99074.38;4942458;27;102808;-72
2023/12/27 08:47:02;;;;;;;5.57;3.88;;;;;;;7.33;77.29;99068.97;4922438;28;104515;-72
2023/12/27 08:49:30;;;;;;;8.35;4.88;;;;;;;7.39;77.11;99060.53;4947597;27;103233;-71
2023/12/27 08:52:01;;;;;;;6.43;4.75;;;;;;;7.44;77.22;99060.94;4942369;27;103486;-72
2023/12/27 08:54:29;;;;;;;9.95;5.15;;;;;;;7.42;76.81;99064.69;4926999;28;102828;-72
2023/12/27 08:56:57;;;;;;;5.55;3.67;;;;;;;7.42;76.89;99062.88;4932694;27;102810;-73
2023/12/27 08:59:26;;;;;;;7.10;4.32;;;;;;;7.52;76.87;99054.97;4948074;28;104393;-70
2023/12/27 09:01:56;;;;;;;7.30;3.72;;;;;;;7.96;76.49;99041.28;4946469;27;103470;-72
2023/12/27 09:04:24;;;;;;;6.43;3.85;;;;;;;8.19;74.71;99035.66;4926088;27;102670;-71
2023/12/27 09:06:53;;;;;;;9.95;5.10;;;;;;;8.41;74.24;99032.66;4944782;27;102788;-72
2023/12/27 09:09:22;;;;;;;7.57;5.18;;;;;;;8.49;73.38;99025.84;4943612;28;103372;-72
2023/12/27 09:11:51;;;;;;;8.15;4.80;;;;;;;8.47;73.71;99031.28;4921447;28;103410;-72
2023/12/27 09:14:19;;;;;;;7.38;4.55;;;;;;;8.39;74.09;99034.63;4946367;27;102596;-71
2023/12/27 09:16:47;;;;;;;6.05;3.90;;;;;;;8.49;73.36;99039.03;4943095;27;102725;-72
2023/12/27 09:19:17;;;;;;;9.50;4.82;;;;;;;8.66;73.37;99045.34;4940416;27;103296;-73
2023/12/27 09:21:45;;;;;;;6.38;4.32;;;;;;;8.60;72.12;99049.41;4953251;27;102944;-72
2023/12/27 09:24:15;;;;;;;6.32;4.38;;;;;;;8.43;72.28;99035.16;4946712;28;102857;-73
2023/12/27 09:26:43;;;;;;;9.45;4.30;;;;;;;8.74;72.21;99021.69;4923900;27;103671;-67
2023/12/27 09:29:11;;;;;;;6.90;4.03;;;;;;;8.77;72.16;99019.56;4948361;28;103009;-66
2023/12/27 09:31:41;;;;;;;6.15;4.07;;;;;;;8.84;70.88;99021.63;4944551;27;103060;-69
2023/12/27 09:34:09;;;;;;;7.65;3.80;;;;;;;8.83;71.03;99023.44;4944472;27;103124;-73
2023/12/27 09:36:39;;;;;;;7.75;4.22;;;;;;;8.67;70.32;99034.63;4946842;28;104205;-72
2023/12/27 09:39:10;;;;;;;5.80;4.13;;;;;;;8.48;71.39;99024.22;4946468;27;103257;-72
2023/12/27 09:41:38;;;;;;;9.68;4.40;;;;;;;8.52;70.27;99028.22;4919946;27;103189;-72
2023/12/27 09:44:08;;;;;;;7.38;3.75;;;;;;;8.49;69.93;99028.47;4948993;28;102904;-72
2023/12/27 09:46:38;;;;;;;7.25;3.95;;;;;;;8.72;68.64;99027.09;4948743;27;102678;-72
2023/12/27 09:49:08;;;;;;;9.50;3.78;;;;;;;8.71;68.40;99014.91;4948930;28;103659;-72
2023/12/27 09:51:39;;;;;;;5.80;3.42;;;;;;;8.81;68.40;99024.56;4933257;28;104748;-71
2023/12/27 09:54:09;;;;;;;5.63;3.40;;;;;;;8.76;69.01;99025.00;4945384;27;102722;-71
2023/12/27 09:56:40;;;;;;;7.75;3.90;;;;;;;8.88;67.98;99029.13;4947577;28;102642;-71
2023/12/27 09:59:10;;;;;;;5.20;3.45;;;;;;;9.11;67.29;99018.91;4946510;27;103316;-72
2023/12/27 10:01:40;;;;;;;6.53;3.60;;;;;;;9.19;66.80;99015.53;4949880;28;103192;-74
2023/12/27 10:04:22;;;;;;;7.55;3.33;;;;;;;9.24;66.51;99017.72;4945118;28;104376;-72
2023/12/27 10:06:52;;;;;;;6.38;3.45;;;;;;;9.18;67.12;99013.03;4926655;28;103080;-72
2023/12/27 10:09:22;;;;;;;6.65;3.42;;;;;;;9.44;66.24;99013.09;4957976;27;103261;-71
2023/12/27 10:11:50;;;;;;;6.05;3.70;;;;;;;9.52;65.38;99004.41;4924657;28;104265;-72
2023/12/27 10:14:21;;;;;;;8.43;4.00;;;;;;;9.58;65.06;98998.50;4946361;28;103080;-72
2023/12/27 10:16:53;;;;;;;6.38;4.03;;;;;;;9.68;64.39;98988.66;4945303;27;102831;-72
2023/12/27 10:19:41;;;;;;;7.15;3.75;;;;;;;9.38;63.65;98995.19;4928427;28;105766;-71
2023/12/27 10:22:11;;;;;;;5.82;3.10;;;;;;;9.76;64.36;98988.69;4982671;27;103205;-71
2023/12/27 10:24:41;;;;;;;7.30;3.78;;;;;;;9.83;63.73;98977.50;4950729;27;102769;-71
2023/12/27 10:27:12;;;;;;;5.38;3.28;;;;;;;9.81;64.56;98953.00;4950391;27;104078;-71
2023/12/27 10:29:48;;;;;;;4.82;3.58;;;;;;;9.95;63.68;98939.19;4944967;28;103465;-71
2023/12/27 10:32:17;;;;;;;6.03;2.95;;;;;;;9.67;64.61;98936.75;4947636;28;103052;-71
2023/12/27 10:34:46;;;;;;;4.43;2.95;;;;;;;9.55;63.91;98935.34;4945565;28;104090;-71
2023/12/27 10:37:17;;;;;;;7.65;3.42;;;;;;;9.74;64.11;98937.75;4942245;28;102757;-71
2023/12/27 10:39:47;;;;;;;5.03;3.10;;;;;;;10.06;62.10;98938.94;4945169;27;104135;-71
2023/12/27 10:42:16;;;;;;;7.45;3.58;;;;;;;10.11;61.19;98936.63;4929664;27;105361;-71
2023/12/27 10:44:45;;;;;;;6.25;3.35;;;;;;;10.47;60.73;98942.72;4946907;27;103521;-73
2023/12/27 10:47:17;;;;;;;6.43;2.85;;;;;;;10.68;61.26;98948.41;4943959;27;104046;-71
2023/12/27 10:49:47;;;;;;;6.75;3.63;;;;;;;10.62;60.14;98943.75;4944152;28;104199;-71
2023/12/27 10:52:17;;;;;;;6.68;2.92;;;;;;;10.95;60.14;98927.91;4931295;27;104355;-70
2023/12/27 10:54:50;;;;;;;6.55;3.95;;;;;;;10.99;59.18;98918.66;4946610;28;103608;-71
2023/12/27 10:57:21;;;;;;;6.60;3.80;;;;;;;11.18;59.31;98911.34;4952888;27;103987;-70
2023/12/27 10:59:54;;;;;;;4.60;2.60;;;;;;;11.14;59.50;98918.81;4950317;27;103776;-71
2023/12/27 11:02:23;;;;;;;7.80;4.03;;;;;;;10.78;58.58;98914.66;4933501;27;102896;-71
2023/12/27 11:04:53;;;;;;;5.43;3.35;;;;;;;10.96;59.61;98908.38;4945769;28;102962;-71
2023/12/27 11:07:24;;;;;;;4.43;2.95;;;;;;;10.70;59.28;98898.75;4942060;28;103161;-69
2023/12/27 11:09:59;;;;;;;7.47;3.90;;;;;;;11.21;59.74;98900.41;4947861;28;105543;-70
2023/12/27 11:12:32;;;;;;;6.18;3.53;;;;;;;11.31;58.21;98895.75;4924428;28;103269;-70
2023/12/27 11:15:04;;;;;;;7.75;3.40;;;;;;;10.99;58.77;98886.00;4942143;28;102686;-70
2023/12/27 11:17:33;;;;;;;6.75;3.88;;;;;;;11.57;58.26;98884.13;4942656;27;102838;-70
2023/12/27 11:20:04;;;;;;;8.38;3.42;;;;;;;11.66;57.56;98883.09;4946266;27;103929;-72
2023/12/27 11:22:35;;;;;;;6.47;2.78;;;;;;;11.87;57.68;98889.63;4940312;28;102971;-65
2023/12/27 11:25:07;;;;;;;8.38;3.35;;;;;;;12.02;56.19;98887.13;4928096;28;103027;-65
2023/12/27 11:27:36;;;;;;;5.22;3.47;;;;;;;12.19;56.32;98874.59;4945581;28;103601;-66
2023/12/27 11:30:09;;;;;;;6.25;3.25;;;;;;;12.20;56.12;98866.47;4941026;27;104346;-66
2023/12/27 11:32:40;;;;;;;7.20;3.35;;;;;;;12.18;55.80;98859.66;4924488;28;103393;-65
2023/12/27 11:35:10;;;;;;;6.00;3.30;;;;;;;12.58;55.53;98860.41;4946264;27;102723;-65
2023/12/27 11:37:41;;;;;;;5.60;3.35;;;;;;;12.34;54.16;98862.25;4944779;27;103298;-66
2023/12/27 11:40:12;;;;;;;8.32;3.42;;;;;;;11.91;55.70;98862.59;4948764;27;103273;-65